| time (UTC) | temp C | wind direction | speed KPH | gust KPH | rain 1hr cm | rain 24hr cm | rain mn cm | humidity % | barometer mb |
| 20260510190844 | 19 | 300 | 3.2 | 11.3 | 0.00 | 0.18 | 0.18 | 59 | 1018.0 |
| 20260510190342 | 20 | 291 | 0.0 | 0.0 | 0.00 | 0.18 | 0.18 | 68 | 1018.1 |
| 20260510185838 | 19 | 282 | 4.8 | 6.4 | 0.00 | 0.18 | 0.18 | 67 | 1018.0 |
| 20260510185336 | 19 | 48 | 1.6 | 6.4 | 0.00 | 0.18 | 0.18 | 65 | 1018.0 |
| 20260510184833 | 18 | 49 | 1.6 | 6.4 | 0.00 | 0.18 | 0.18 | 70 | 1018.2 |
| 20260510184330 | 18 | 265 | 1.6 | 6.4 | 0.00 | 0.18 | 0.18 | 68 | 1018.2 |
| 20260510183824 | 18 | 75 | 0.0 | 4.8 | 0.00 | 0.18 | 0.18 | 73 | 1018.1 |
| 20260510183320 | 18 | 320 | 4.8 | 6.4 | 0.00 | 0.18 | 0.18 | 69 | 1018.0 |
| 20260510182811 | 18 | 320 | 4.8 | 6.4 | 0.00 | 0.18 | 0.18 | 66 | 1017.8 |
| 20260510182307 | 18 | 282 | 1.6 | 9.7 | 0.00 | 0.18 | 0.18 | 66 | 1017.9 |
| 20260510181803 | 18 | 305 | 4.8 | 6.4 | 0.00 | 0.18 | 0.18 | 71 | 1017.9 |
| 20260510181301 | 18 | 296 | 3.2 | 4.8 | 0.00 | 0.18 | 0.18 | 66 | 1017.8 |
| 20260510180757 | 17 | 61 | 3.2 | 6.4 | 0.00 | 0.18 | 0.18 | 70 | 1017.8 |
| 20260510180254 | 18 | 46 | 4.8 | 6.4 | 0.00 | 0.18 | 0.18 | 68 | 1017.6 |
| 20260510175751 | 17 | 60 | 3.2 | 4.8 | 0.00 | 0.18 | 0.18 | 72 | 1017.9 |
| 20260510175246 | 17 | 293 | 0.0 | 6.4 | 0.00 | 0.18 | 0.18 | 79 | 1017.8 |
| 20260510174743 | 17 | 21 | 3.2 | 6.4 | 0.00 | 0.18 | 0.18 | 75 | 1017.8 |
| 20260510174241 | 17 | 79 | 1.6 | 4.8 | 0.00 | 0.18 | 0.18 | 78 | 1017.7 |
| 20260510173737 | 17 | 62 | 3.2 | 4.8 | 0.00 | 0.18 | 0.18 | 79 | 1017.7 |
| 20260510173232 | 17 | 73 | 1.6 | 6.4 | 0.00 | 0.18 | 0.18 | 80 | 1017.7 |
| 20260510172728 | 17 | 25 | 1.6 | 4.8 | 0.00 | 0.18 | 0.18 | 82 | 1017.8 |
| 20260510172224 | 17 | 306 | 3.2 | 6.4 | 0.00 | 0.18 | 0.18 | 81 | 1017.9 |
| 20260510171721 | 18 | 319 | 1.6 | 3.2 | 0.00 | 0.18 | 0.18 | 81 | 1017.7 |
| 20260510171219 | 17 | 316 | 0.0 | 4.8 | 0.00 | 0.18 | 0.18 | 84 | 1017.8 |
| 20260510170716 | 17 | 336 | 1.6 | 4.8 | 0.00 | 0.18 | 0.18 | 84 | 1017.7 |
| 20260510170212 | 16 | 336 | 3.2 | 6.4 | 0.00 | 0.18 | 0.18 | 84 | 1017.9 |
| 20260510165708 | 16 | 17 | 3.2 | 3.2 | 0.00 | 0.18 | 0.18 | 85 | 1017.9 |
| 20260510165204 | 17 | 299 | 6.4 | 11.3 | 0.00 | 0.18 | 0.18 | 85 | 1017.9 |
| 20260510164701 | 17 | 78 | 3.2 | 6.4 | 0.00 | 0.18 | 0.18 | 85 | 1017.9 |
| 20260510164158 | 16 | 17 | 1.6 | 3.2 | 0.00 | 0.18 | 0.18 | 88 | 1017.9 |
| 20260510163653 | 16 | 44 | 4.8 | 9.7 | 0.00 | 0.18 | 0.18 | 87 | 1017.9 |
| 20260510163149 | 16 | 39 | 0.0 | 6.4 | 0.00 | 0.18 | 0.18 | 90 | 1018.0 |
| 20260510162649 | 16 | 54 | 1.6 | 4.8 | 0.00 | 0.18 | 0.18 | 89 | 1017.7 |
| 20260510162146 | 16 | 255 | 0.0 | 0.0 | 0.00 | 0.18 | 0.18 | 90 | 1017.7 |
| 20260510161642 | 16 | 255 | 0.0 | 0.0 | 0.00 | 0.18 | 0.18 | 88 | 1017.4 |
| 20260510161138 | 16 | 218 | 0.0 | 0.0 | 0.00 | 0.18 | 0.18 | 87 | 1017.4 |
| 20260510160636 | 16 | 218 | 0.0 | 0.0 | 0.00 | 0.18 | 0.18 | 87 | 1017.6 |
| 20260510160136 | 16 | 218 | 0.0 | 0.0 | 0.00 | 0.18 | 0.18 | 87 | 1017.3 |
| 20260510155632 | 16 | 215 | 0.0 | 0.0 | 0.00 | 0.18 | 0.18 | 87 | 1017.2 |
| 20260510155128 | 16 | 249 | 0.0 | 0.0 | 0.00 | 0.18 | 0.18 | 84 | 1017.1 |
| 20260510154624 | 16 | 249 | 0.0 | 0.0 | 0.00 | 0.18 | 0.18 | 87 | 1017.1 |
| 20260510154119 | 16 | 255 | 0.0 | 0.0 | 0.00 | 0.18 | 0.18 | 88 | 1017.2 |
| 20260510153615 | 16 | 255 | 0.0 | 0.0 | 0.00 | 0.18 | 0.18 | 90 | 1017.0 |
| 20260510153111 | 15 | 255 | 0.0 | 0.0 | 0.00 | 0.18 | 0.18 | 92 | 1017.0 |
| 20260510152608 | 15 | 255 | 0.0 | 0.0 | 0.00 | 0.18 | 0.18 | 94 | 1017.2 |
| 20260510152104 | 15 | 255 | 0.0 | 0.0 | 0.18 | 0.18 | 0.18 | 94 | 1017.1 |
| 20260510151602 | 15 | 255 | 0.0 | 0.0 | 0.18 | 0.18 | 0.18 | 95 | 1017.0 |
| 20260510151100 | 15 | 255 | 0.0 | 0.0 | 0.00 | 0.15 | 0.15 | 96 | 1016.9 |
| 20260510150600 | 15 | 255 | 0.0 | 0.0 | 0.13 | 0.15 | 0.15 | 96 | 1017.2 |
| 20260510150055 | 15 | 255 | 0.0 | 0.0 | 0.13 | 0.15 | 0.15 | 96 | 1016.8 |
| 20260510145552 | 15 | 255 | 0.0 | 0.0 | 0.00 | 0.13 | 0.13 | 95 | 1016.6 |
| 20260510145049 | 15 | 255 | 0.0 | 0.0 | 0.18 | 0.13 | 0.13 | 95 | 1016.6 |
| 20260510144545 | 15 | 255 | 0.0 | 0.0 | 0.13 | 0.10 | 0.10 | 95 | 1016.5 |
| 20260510144041 | 15 | 255 | 0.0 | 0.0 | 0.13 | 0.10 | 0.10 | 94 | 1016.4 |
| 20260510143537 | 15 | 255 | 0.0 | 0.0 | 0.18 | 0.08 | 0.08 | 94 | 1016.5 |
| 20260510143034 | 15 | 255 | 0.0 | 0.0 | 0.18 | 0.05 | 0.05 | 92 | 1016.6 |
| 20260510142530 | 15 | 255 | 0.0 | 0.0 | 0.30 | 0.05 | 0.05 | 91 | 1016.7 |
| 20260510142027 | 15 | 254 | 0.0 | 3.2 | 0.13 | 0.03 | 0.03 | 89 | 1016.7 |
| 20260510141524 | 15 | 333 | 4.8 | 9.7 | 0.00 | 0.00 | 0.00 | 87 | 1017.1 |
| 20260510141021 | 16 | 265 | 3.2 | 4.8 | 0.00 | 0.00 | 0.00 | 82 | 1016.4 |
| 20260510140517 | 16 | 230 | 0.0 | 1.6 | 0.00 | 0.00 | 0.00 | 81 | 1016.3 |
| 20260510140017 | 16 | 230 | 0.0 | 3.2 | 0.00 | 0.00 | 0.00 | 79 | 1016.2 |
| 20260510135513 | 17 | 230 | 1.6 | 3.2 | 0.00 | 0.00 | 0.00 | 78 | 1016.3 |
| 20260510135010 | 17 | 230 | 3.2 | 4.8 | 0.00 | 0.00 | 0.00 | 78 | 1016.1 |
| 20260510134507 | 17 | 168 | 1.6 | 3.2 | 0.00 | 0.00 | 0.00 | 79 | 1016.2 |
| 20260510134003 | 18 | 259 | 0.0 | 1.6 | 0.00 | 0.00 | 0.00 | 78 | 1016.1 |
| 20260510133459 | 17 | 249 | 3.2 | 6.4 | 0.00 | 0.00 | 0.00 | 82 | 1016.0 |
| 20260510132955 | 17 | 285 | 0.0 | 4.8 | 0.00 | 0.00 | 0.00 | 81 | 1016.1 |
| 20260510132453 | 16 | 306 | 4.8 | 4.8 | 0.00 | 0.00 | 0.00 | 81 | 1016.2 |
| 20260510131949 | 16 | 259 | 3.2 | 4.8 | 0.00 | 0.00 | 0.00 | 82 | 1016.0 |
| 20260510131447 | 16 | 238 | 0.0 | 6.4 | 0.00 | 0.00 | 0.00 | 83 | 1015.8 |
| 20260510130944 | 16 | 240 | 3.2 | 4.8 | 0.00 | 0.00 | 0.00 | 83 | 1016.0 |
| 20260510130440 | 16 | 234 | 3.2 | 3.2 | 0.00 | 0.00 | 0.00 | 84 | 1015.9 |
| 20260510125938 | 15 | 234 | 1.6 | 1.6 | 0.00 | 0.00 | 0.00 | 85 | 1015.9 |
| 20260510125434 | 15 | 234 | 0.0 | 0.0 | 0.00 | 0.00 | 0.00 | 85 | 1015.7 |
| 20260510124931 | 15 | 234 | 0.0 | 1.6 | 0.00 | 0.00 | 0.00 | 85 | 1015.7 |
| 20260510124427 | 15 | 234 | 1.6 | 1.6 | 0.00 | 0.00 | 0.00 | 84 | 1015.6 |
| 20260510123924 | 15 | 234 | 1.6 | 3.2 | 0.00 | 0.00 | 0.00 | 84 | 1015.7 |
| 20260510123419 | 15 | 234 | 1.6 | 1.6 | 0.00 | 0.00 | 0.00 | 86 | 1015.8 |
| 20260510122916 | 15 | 234 | 1.6 | 3.2 | 0.00 | 0.00 | 0.00 | 85 | 1015.8 |
| 20260510122410 | 15 | 234 | 3.2 | 3.2 | 0.00 | 0.00 | 0.00 | 84 | 1015.6 |
| 20260510121907 | 15 | 234 | 1.6 | 1.6 | 0.00 | 0.00 | 0.00 | 84 | 1015.3 |
| 20260510121405 | 15 | 240 | 0.0 | 0.0 | 0.00 | 0.00 | 0.00 | 84 | 1015.4 |
| 20260510120902 | 15 | 240 | 0.0 | 0.0 | 0.00 | 0.00 | 0.00 | 85 | 1015.6 |
| 20260510120359 | 15 | 240 | 0.0 | 1.6 | 0.00 | 0.00 | 0.00 | 85 | 1015.6 |
| 20260510115855 | 14 | 239 | 1.6 | 3.2 | 0.00 | 0.00 | 0.00 | 85 | 1015.5 |
| 20260510115352 | 14 | 239 | 3.2 | 3.2 | 0.00 | 0.00 | 0.00 | 85 | 1015.3 |
| 20260510114847 | 14 | 265 | 1.6 | 3.2 | 0.00 | 0.00 | 0.00 | 86 | 1015.3 |
| 20260510114345 | 14 | 232 | 1.6 | 3.2 | 0.00 | 0.00 | 0.00 | 85 | 1015.1 |
| 20260510113845 | 14 | 250 | 0.0 | 0.0 | 0.00 | 0.00 | 0.00 | 86 | 1015.2 |
| 20260510113341 | 14 | 251 | 0.0 | 3.2 | 0.00 | 0.00 | 0.00 | 86 | 1014.9 |
| 20260510112838 | 14 | 181 | 4.8 | 6.4 | 0.00 | 0.00 | 0.00 | 85 | 1014.7 |
| 20260510112336 | 14 | 196 | 1.6 | 3.2 | 0.00 | 0.00 | 0.00 | 86 | 1014.2 |
| 20260510111831 | 14 | 196 | 3.2 | 9.7 | 0.00 | 0.00 | 0.00 | 86 | 1014.3 |
| 20260510111328 | 13 | 234 | 0.0 | 0.0 | 0.00 | 0.00 | 0.00 | 87 | 1014.3 |
| 20260510110828 | 13 | 210 | 1.6 | 4.8 | 0.00 | 0.00 | 0.00 | 86 | 1014.1 |
| 20260510110326 | 13 | 230 | 3.2 | 4.8 | 0.00 | 0.00 | 0.00 | 87 | 1014.1 |
| 20260510105821 | 13 | 250 | 1.6 | 6.4 | 0.00 | 0.00 | 0.00 | 87 | 1014.0 |
| 20260510105316 | 13 | 224 | 1.6 | 3.2 | 0.00 | 0.00 | 0.00 | 87 | 1014.0 |
| 20260510104813 | 13 | 232 | 3.2 | 3.2 | 0.00 | 0.00 | 0.00 | 88 | 1014.0 |
| 20260510104310 | 13 | 231 | 1.6 | 3.2 | 0.00 | 0.00 | 0.00 | 89 | 1013.9 |
| 20260510103807 | 13 | 233 | 1.6 | 3.2 | 0.00 | 0.00 | 0.00 | 89 | 1014.0 |
| 20260510103303 | 13 | 233 | 1.6 | 4.8 | 0.00 | 0.00 | 0.00 | 89 | 1013.9 |
| 20260510102803 | 13 | 224 | 0.0 | 0.0 | 0.00 | 0.00 | 0.00 | 89 | 1013.6 |
| 20260510102259 | 13 | 224 | 0.0 | 0.0 | 0.00 | 0.00 | 0.00 | 89 | 1013.6 |
| 20260510101756 | 13 | 223 | 0.0 | 0.0 | 0.00 | 0.00 | 0.00 | 89 | 1013.5 |
| 20260510101255 | 13 | 224 | 0.0 | 3.2 | 0.00 | 0.00 | 0.00 | 88 | 1013.3 |
| 20260510100750 | 13 | 224 | 3.2 | 4.8 | 0.00 | 0.00 | 0.00 | 87 | 1013.2 |
| 20260510100249 | 13 | 234 | 3.2 | 3.2 | 0.00 | 0.00 | 0.00 | 88 | 1013.0 |
| 20260510095749 | 13 | 250 | 1.6 | 3.2 | 0.00 | 0.00 | 0.00 | 88 | 1013.1 |
| 20260510095245 | 13 | 224 | 0.0 | 3.2 | 0.00 | 0.00 | 0.00 | 88 | 1013.1 |
| 20260510094744 | 13 | 224 | 4.8 | 6.4 | 0.00 | 0.00 | 0.00 | 87 | 1012.9 |
| 20260510094240 | 13 | 240 | 3.2 | 4.8 | 0.00 | 0.00 | 0.00 | 87 | 1012.9 |
| 20260510093736 | 13 | 243 | 3.2 | 6.4 | 0.00 | 0.00 | 0.00 | 87 | 1012.9 |
| 20260510093233 | 13 | 234 | 3.2 | 4.8 | 0.00 | 0.00 | 0.00 | 87 | 1012.8 |
| 20260510092729 | 13 | 242 | 3.2 | 4.8 | 0.00 | 0.00 | 0.00 | 87 | 1012.7 |
| 20260510092225 | 13 | 201 | 4.8 | 4.8 | 0.00 | 0.00 | 0.00 | 87 | 1012.7 |
| 20260510091721 | 13 | 240 | 4.8 | 6.4 | 0.00 | 0.00 | 0.00 | 86 | 1012.6 |
| 20260510091218 | 13 | 239 | 3.2 | 4.8 | 0.00 | 0.00 | 0.00 | 86 | 1012.6 |
| 20260510090714 | 13 | 89 | 3.2 | 6.4 | 0.00 | 0.00 | 0.00 | 86 | 1012.5 |
| 20260510090211 | 13 | 236 | 6.4 | 6.4 | 0.00 | 0.00 | 0.00 | 87 | 1012.5 |
| 20260510085706 | 13 | 234 | 1.6 | 3.2 | 0.00 | 0.00 | 0.00 | 87 | 1012.7 |
| 20260510085202 | 13 | 238 | 3.2 | 4.8 | 0.00 | 0.00 | 0.00 | 87 | 1012.6 |
| 20260510084658 | 13 | 242 | 4.8 | 4.8 | 0.00 | 0.00 | 0.00 | 87 | 1012.7 |
| 20260510084155 | 13 | 227 | 1.6 | 4.8 | 0.00 | 0.00 | 0.00 | 86 | 1012.6 |
| 20260510083652 | 13 | 233 | 3.2 | 6.4 | 0.00 | 0.00 | 0.00 | 86 | 1012.6 |
| 20260510083148 | 14 | 236 | 4.8 | 9.7 | 0.00 | 0.00 | 0.00 | 86 | 1012.6 |
| 20260510082644 | 13 | 229 | 4.8 | 6.4 | 0.00 | 0.00 | 0.00 | 86 | 1012.7 |
| 20260510082140 | 13 | 235 | 3.2 | 4.8 | 0.00 | 0.00 | 0.00 | 86 | 1012.9 |
| 20260510081635 | 13 | 244 | 3.2 | 4.8 | 0.00 | 0.00 | 0.00 | 86 | 1012.6 |
| 20260510081131 | 13 | 238 | 4.8 | 6.4 | 0.00 | 0.00 | 0.00 | 86 | 1012.6 |
| 20260510080630 | 13 | 235 | 3.2 | 4.8 | 0.00 | 0.00 | 0.00 | 85 | 1012.6 |
| 20260510080127 | 13 | 251 | 3.2 | 4.8 | 0.00 | 0.00 | 0.00 | 86 | 1012.6 |
| 20260510075625 | 14 | 251 | 3.2 | 4.8 | 0.00 | 0.00 | 0.00 | 85 | 1012.3 |
| 20260510075122 | 14 | 242 | 6.4 | 9.7 | 0.00 | 0.00 | 0.00 | 85 | 1012.3 |
| 20260510074619 | 14 | 248 | 4.8 | 6.4 | 0.00 | 0.00 | 0.00 | 85 | 1012.4 |
| 20260510074114 | 14 | 212 | 3.2 | 6.4 | 0.00 | 0.00 | 0.00 | 84 | 1012.2 |
| 20260510073610 | 14 | 242 | 4.8 | 6.4 | 0.00 | 0.00 | 0.00 | 84 | 1012.3 |
| 20260510073108 | 14 | 231 | 4.8 | 9.7 | 0.00 | 0.00 | 0.00 | 83 | 1012.3 |
| 20260510072604 | 14 | 237 | 3.2 | 4.8 | 0.00 | 0.00 | 0.00 | 83 | 1012.2 |
| 20260510072101 | 14 | 233 | 3.2 | 4.8 | 0.00 | 0.00 | 0.00 | 84 | 1012.3 |
| 20260510071557 | 14 | 243 | 3.2 | 9.7 | 0.00 | 0.00 | 0.00 | 84 | 1012.3 |
| 20260510071055 | 14 | 246 | 4.8 | 4.8 | 0.00 | 0.00 | 0.00 | 84 | 1012.5 |
| 20260510070551 | 15 | 245 | 3.2 | 9.7 | 0.00 | 0.00 | 0.00 | 82 | 1012.4 |
| 20260510070049 | 15 | 248 | 3.2 | 9.7 | 0.00 | 0.00 | 0.00 | 82 | 1012.3 |
| 20260510065545 | 15 | 257 | 3.2 | 6.4 | 0.00 | 0.00 | 0.00 | 82 | 1012.1 |
| 20260510065041 | 15 | 235 | 4.8 | 9.7 | 0.00 | 0.00 | 0.00 | 82 | 1012.4 |
| 20260510064537 | 15 | 249 | 4.8 | 9.7 | 0.00 | 0.00 | 0.00 | 82 | 1012.3 |
| 20260510064034 | 15 | 223 | 3.2 | 6.4 | 0.00 | 0.00 | 0.00 | 82 | 1012.2 |
| 20260510063531 | 15 | 208 | 4.8 | 4.8 | 0.00 | 0.00 | 0.00 | 82 | 1012.2 |
| 20260510063028 | 15 | 198 | 4.8 | 6.4 | 0.00 | 0.00 | 0.00 | 82 | 1012.3 |
| 20260510062524 | 15 | 248 | 3.2 | 6.4 | 0.00 | 0.00 | 0.00 | 81 | 1012.3 |
| 20260510062019 | 15 | 233 | 6.4 | 11.3 | 0.00 | 0.00 | 0.00 | 80 | 1012.4 |
| 20260510061516 | 15 | 217 | 4.8 | 11.3 | 0.00 | 0.00 | 0.00 | 80 | 1012.3 |
| 20260510061013 | 15 | 248 | 3.2 | 9.7 | 0.00 | 0.00 | 0.00 | 80 | 1012.2 |
| 20260510060509 | 15 | 253 | 4.8 | 6.4 | 0.00 | 0.00 | 0.00 | 80 | 1012.2 |
| 20260510060006 | 15 | 246 | 4.8 | 6.4 | 0.00 | 0.00 | 0.00 | 80 | 1012.2 |
| 20260510055501 | 15 | 201 | 6.4 | 9.7 | 0.00 | 0.00 | 0.00 | 80 | 1012.4 |
| 20260510055000 | 15 | 233 | 9.7 | 12.9 | 0.00 | 0.00 | 0.00 | 80 | 1012.3 |
| 20260510054455 | 15 | 244 | 3.2 | 11.3 | 0.00 | 0.00 | 0.00 | 80 | 1012.3 |
| 20260510053950 | 16 | 249 | 6.4 | 11.3 | 0.00 | 0.00 | 0.00 | 80 | 1012.3 |
| 20260510053445 | 15 | 262 | 3.2 | 6.4 | 0.00 | 0.00 | 0.00 | 80 | 1012.6 |
| 20260510052942 | 16 | 243 | 4.8 | 11.3 | 0.00 | 0.00 | 0.00 | 79 | 1012.4 |
| 20260510052438 | 16 | 232 | 4.8 | 11.3 | 0.00 | 0.00 | 0.00 | 79 | 1012.5 |
| 20260510051934 | 16 | 227 | 8.0 | 11.3 | 0.00 | 0.00 | 0.00 | 79 | 1012.4 |
| 20260510051431 | 16 | 259 | 4.8 | 9.7 | 0.00 | 0.00 | 0.00 | 79 | 1012.4 |
| 20260510050927 | 16 | 201 | 4.8 | 12.9 | 0.00 | 0.00 | 0.00 | 79 | 1012.5 |
| 20260510050424 | 16 | 253 | 3.2 | 9.7 | 0.00 | 0.00 | 0.00 | 79 | 1012.4 |
| 20260510045921 | 16 | 253 | 6.4 | 12.9 | 0.00 | 0.00 | 0.00 | 79 | 1012.7 |
| 20260510045418 | 16 | 223 | 6.4 | 11.3 | 0.00 | 0.00 | 0.00 | 79 | 1012.6 |
| 20260510044915 | 16 | 253 | 8.0 | 14.5 | 0.00 | 0.00 | 0.00 | 78 | 1012.7 |
| 20260510044412 | 16 | 189 | 6.4 | 9.7 | 0.00 | 0.00 | 0.00 | 79 | 1012.6 |
| 20260510043909 | 16 | 217 | 4.8 | 11.3 | 0.00 | 0.00 | 0.00 | 79 | 1012.6 |
| 20260510043404 | 16 | 238 | 6.4 | 14.5 | 0.00 | 0.00 | 0.00 | 79 | 1012.5 |
| 20260510042903 | 16 | 206 | 4.8 | 11.3 | 0.00 | 0.00 | 0.00 | 79 | 1012.5 |
| 20260510042358 | 16 | 247 | 8.0 | 11.3 | 0.00 | 0.00 | 0.00 | 79 | 1012.5 |
| 20260510041854 | 16 | 259 | 8.0 | 11.3 | 0.00 | 0.00 | 0.00 | 79 | 1012.6 |
| 20260510041352 | 16 | 229 | 3.2 | 12.9 | 0.00 | 0.00 | 0.00 | 79 | 1012.4 |
| 20260510040849 | 16 | 249 | 6.4 | 11.3 | 0.00 | 0.00 | 0.00 | 79 | 1012.5 |
| 20260510040346 | 16 | 236 | 4.8 | 16.1 | 0.00 | 0.00 | 0.00 | 78 | 1012.5 |
| 20260510035841 | 16 | 236 | 8.0 | 9.7 | 0.00 | 0.33 | 0.33 | 79 | 1012.5 |
| 20260510035337 | 16 | 233 | 8.0 | 11.3 | 0.00 | 0.33 | 0.33 | 78 | 1012.5 |
| 20260510034833 | 16 | 240 | 6.4 | 12.9 | 0.00 | 0.33 | 0.33 | 78 | 1012.3 |
| 20260510034331 | 16 | 257 | 8.0 | 11.3 | 0.00 | 0.33 | 0.33 | 79 | 1012.5 |
| 20260510033827 | 16 | 179 | 6.4 | 11.3 | 0.00 | 0.33 | 0.33 | 79 | 1012.5 |
| 20260510033324 | 16 | 240 | 8.0 | 11.3 | 0.00 | 0.33 | 0.33 | 79 | 1012.4 |
| 20260510032821 | 16 | 158 | 4.8 | 11.3 | 0.00 | 0.33 | 0.33 | 79 | 1012.5 |
| 20260510032317 | 16 | 235 | 6.4 | 11.3 | 0.00 | 0.33 | 0.33 | 79 | 1012.3 |
| 20260510031813 | 16 | 245 | 4.8 | 9.7 | 0.00 | 0.33 | 0.33 | 78 | 1012.2 |
| 20260510031309 | 16 | 224 | 4.8 | 11.3 | 0.00 | 0.33 | 0.33 | 78 | 1012.2 |
| 20260510030809 | 16 | 203 | 6.4 | 11.3 | 0.00 | 0.33 | 0.33 | 78 | 1012.2 |
| 20260510030306 | 16 | 214 | 3.2 | 9.7 | 0.00 | 0.33 | 0.33 | 78 | 1012.2 |
| 20260510025803 | 16 | 248 | 3.2 | 6.4 | 0.00 | 0.33 | 0.33 | 78 | 1012.0 |
| 20260510025300 | 16 | 217 | 4.8 | 6.4 | 0.00 | 0.33 | 0.33 | 77 | 1012.2 |
| 20260510024756 | 16 | 233 | 4.8 | 6.4 | 0.00 | 0.33 | 0.33 | 77 | 1012.2 |
| 20260510024254 | 16 | 246 | 4.8 | 9.7 | 0.00 | 0.33 | 0.33 | 78 | 1011.9 |
| 20260510023750 | 16 | 264 | 4.8 | 9.7 | 0.00 | 0.33 | 0.33 | 77 | 1011.9 |
| 20260510023247 | 16 | 238 | 1.6 | 6.4 | 0.00 | 0.33 | 0.33 | 77 | 1012.0 |
| 20260510022743 | 16 | 233 | 3.2 | 4.8 | 0.00 | 0.33 | 0.33 | 77 | 1011.9 |
| 20260510022237 | 16 | 237 | 3.2 | 3.2 | 0.00 | 0.33 | 0.33 | 77 | 1012.0 |
| 20260510021726 | 16 | 228 | 3.2 | 6.4 | 0.00 | 0.33 | 0.33 | 76 | 1012.0 |
| 20260510021225 | 16 | 256 | 6.4 | 9.7 | 0.00 | 0.33 | 0.33 | 76 | 1011.8 |
| 20260510020725 | 16 | 234 | 1.6 | 4.8 | 0.00 | 0.33 | 0.33 | 76 | 1011.8 |
| 20260510020220 | 16 | 245 | 4.8 | 6.4 | 0.00 | 0.33 | 0.33 | 75 | 1011.7 |
| 20260510015716 | 16 | 239 | 3.2 | 6.4 | 0.00 | 0.33 | 0.33 | 75 | 1011.7 |
| 20260510015213 | 16 | 243 | 3.2 | 9.7 | 0.00 | 0.33 | 0.33 | 75 | 1011.5 |
| 20260510014708 | 16 | 225 | 4.8 | 9.7 | 0.00 | 0.33 | 0.33 | 74 | 1011.4 |
| 20260510014205 | 17 | 245 | 1.6 | 4.8 | 0.00 | 0.33 | 0.33 | 74 | 1011.3 |
| 20260510013700 | 17 | 250 | 4.8 | 6.4 | 0.00 | 0.33 | 0.33 | 74 | 1011.2 |
| 20260510013156 | 17 | 237 | 3.2 | 6.4 | 0.00 | 0.33 | 0.33 | 74 | 1011.3 |
| 20260510012656 | 17 | 226 | 1.6 | 4.8 | 0.00 | 0.33 | 0.33 | 73 | 1011.2 |
| 20260510012151 | 17 | 233 | 3.2 | 4.8 | 0.00 | 0.33 | 0.33 | 73 | 1011.0 |
| 20260510011646 | 17 | 197 | 3.2 | 4.8 | 0.00 | 0.33 | 0.33 | 73 | 1010.9 |
| 20260510011142 | 17 | 244 | 3.2 | 6.4 | 0.00 | 0.33 | 0.33 | 73 | 1011.0 |
| 20260510010638 | 17 | 230 | 3.2 | 9.7 | 0.00 | 0.33 | 0.33 | 73 | 1011.0 |
| 20260510010136 | 17 | 239 | 1.6 | 3.2 | 0.00 | 0.33 | 0.33 | 73 | 1010.9 |
| 20260510005632 | 17 | 229 | 1.6 | 4.8 | 0.00 | 0.33 | 0.33 | 72 | 1010.7 |
| 20260510005129 | 17 | 237 | 3.2 | 4.8 | 0.00 | 0.33 | 0.33 | 72 | 1010.7 |
| 20260510004627 | 17 | 234 | 3.2 | 3.2 | 0.00 | 0.33 | 0.33 | 72 | 1010.8 |
| 20260510004125 | 17 | 235 | 0.0 | 3.2 | 0.00 | 0.33 | 0.33 | 71 | 1010.5 |
| 20260510003622 | 17 | 234 | 3.2 | 4.8 | 0.00 | 0.33 | 0.33 | 70 | 1010.5 |
| 20260510003117 | 17 | 243 | 1.6 | 3.2 | 0.00 | 0.33 | 0.33 | 70 | 1010.7 |
| 20260510002612 | 18 | 204 | 3.2 | 4.8 | 0.00 | 0.33 | 0.33 | 69 | 1010.3 |
| 20260510002110 | 18 | 140 | 3.2 | 6.4 | 0.00 | 0.33 | 0.33 | 68 | 1010.4 |
| 20260510001607 | 18 | 229 | 4.8 | 4.8 | 0.00 | 0.33 | 0.33 | 68 | 1010.2 |
| 20260510001106 | 18 | 266 | 3.2 | 4.8 | 0.00 | 0.33 | 0.33 | 67 | 1010.2 |
| 20260510000605 | 18 | 193 | 1.6 | 3.2 | 0.00 | 0.33 | 0.33 | 67 | 1010.3 |
| 20260509235559 | 19 | 162 | 3.2 | 6.4 | 0.00 | 0.33 | 0.33 | 65 | 1010.1 |
| 20260509235056 | 19 | 250 | 3.2 | 6.4 | 0.00 | 0.33 | 0.33 | 65 | 1010.1 |
| 20260509234552 | 19 | 260 | 3.2 | 4.8 | 0.00 | 0.33 | 0.33 | 65 | 1010.3 |
| 20260509234050 | 19 | 239 | 8.0 | 11.3 | 0.00 | 0.33 | 0.33 | 64 | 1010.2 |
| 20260509233547 | 19 | 234 | 9.7 | 12.9 | 0.00 | 0.33 | 0.33 | 63 | 1010.2 |
| 20260509233044 | 19 | 238 | 4.8 | 9.7 | 0.00 | 0.33 | 0.33 | 63 | 1010.2 |
| 20260509232541 | 20 | 86 | 8.0 | 17.7 | 0.00 | 0.33 | 0.33 | 63 | 1010.2 |
| 20260509232038 | 20 | 233 | 6.4 | 9.7 | 0.00 | 0.33 | 0.33 | 62 | 1009.8 |
| 20260509231534 | 20 | 216 | 4.8 | 9.7 | 0.00 | 0.33 | 0.33 | 62 | 1010.0 |
| 20260509231032 | 20 | 248 | 8.0 | 11.3 | 0.00 | 0.33 | 0.33 | 61 | 1010.1 |
| 20260509230528 | 20 | 221 | 6.4 | 9.7 | 0.00 | 0.33 | 0.33 | 61 | 1009.7 |
| 20260509230026 | 20 | 233 | 6.4 | 9.7 | 0.00 | 0.33 | 0.33 | 60 | 1010.1 |
| 20260509225521 | 20 | 244 | 12.9 | 14.5 | 0.00 | 0.33 | 0.33 | 59 | 1010.1 |
| 20260509225017 | 20 | 250 | 3.2 | 12.9 | 0.00 | 0.33 | 0.33 | 61 | 1009.8 |
| 20260509224512 | 20 | 256 | 8.0 | 14.5 | 0.00 | 0.33 | 0.33 | 60 | 1010.1 |
| 20260509224009 | 20 | 242 | 11.3 | 16.1 | 0.00 | 0.33 | 0.33 | 59 | 1010.1 |
| 20260509223506 | 21 | 260 | 8.0 | 14.5 | 0.00 | 0.33 | 0.33 | 60 | 1010.1 |
| 20260509223005 | 20 | 253 | 8.0 | 14.5 | 0.00 | 0.33 | 0.33 | 60 | 1010.1 |
| 20260509222459 | 21 | 232 | 9.7 | 14.5 | 0.00 | 0.33 | 0.33 | 60 | 1010.2 |
| 20260509221955 | 21 | 231 | 6.4 | 12.9 | 0.00 | 0.33 | 0.33 | 59 | 1010.3 |
| 20260509221451 | 21 | 272 | 6.4 | 6.4 | 0.00 | 0.33 | 0.33 | 60 | 1010.2 |
| 20260509220948 | 21 | 251 | 4.8 | 12.9 | 0.00 | 0.33 | 0.33 | 59 | 1010.4 |
| 20260509220444 | 20 | 242 | 8.0 | 14.5 | 0.00 | 0.33 | 0.33 | 61 | 1010.3 |
| 20260509215940 | 21 | 235 | 6.4 | 9.7 | 0.00 | 0.33 | 0.33 | 58 | 1010.4 |
| 20260509215435 | 20 | 234 | 3.2 | 9.7 | 0.00 | 0.33 | 0.33 | 62 | 1010.5 |
| 20260509214933 | 20 | 255 | 9.7 | 14.5 | 0.00 | 0.33 | 0.33 | 59 | 1010.4 |
| 20260509214430 | 20 | 248 | 4.8 | 11.3 | 0.00 | 0.33 | 0.33 | 64 | 1010.6 |
| 20260509213927 | 21 | 215 | 6.4 | 9.7 | 0.00 | 0.33 | 0.33 | 59 | 1010.4 |
| 20260509213422 | 21 | 242 | 6.4 | 14.5 | 0.00 | 0.33 | 0.33 | 60 | 1010.5 |
| 20260509212920 | 21 | 290 | 4.8 | 9.7 | 0.00 | 0.33 | 0.33 | 62 | 1010.4 |
| 20260509212418 | 21 | 277 | 9.7 | 12.9 | 0.00 | 0.33 | 0.33 | 61 | 1010.4 |
| 20260509211914 | 20 | 220 | 0.0 | 6.4 | 0.00 | 0.33 | 0.33 | 65 | 1010.5 |
| 20260509211410 | 20 | 196 | 3.2 | 9.7 | 0.00 | 0.33 | 0.33 | 62 | 1010.4 |
| 20260509210906 | 20 | 246 | 3.2 | 6.4 | 0.00 | 0.33 | 0.33 | 63 | 1010.6 |
| 20260509210404 | 20 | 23 | 3.2 | 4.8 | 0.00 | 0.33 | 0.33 | 62 | 1010.5 |
| 20260509205904 | 20 | 239 | 3.2 | 9.7 | 0.00 | 0.33 | 0.33 | 63 | 1010.5 |
| 20260509205403 | 19 | 250 | 6.4 | 16.1 | 0.00 | 0.33 | 0.33 | 65 | 1010.6 |
| 20260509204900 | 19 | 240 | 3.2 | 6.4 | 0.00 | 0.33 | 0.33 | 66 | 1010.5 |
| 20260509204356 | 20 | 223 | 6.4 | 11.3 | 0.00 | 0.33 | 0.33 | 63 | 1010.6 |
| 20260509203853 | 20 | 114 | 3.2 | 9.7 | 0.00 | 0.33 | 0.33 | 61 | 1010.6 |
| 20260509203349 | 19 | 272 | 4.8 | 11.3 | 0.00 | 0.33 | 0.33 | 63 | 1010.5 |
| 20260509202846 | 20 | 158 | 8.0 | 12.9 | 0.00 | 0.33 | 0.33 | 62 | 1010.5 |
| 20260509202342 | 21 | 213 | 9.7 | 12.9 | 0.00 | 0.33 | 0.33 | 62 | 1010.8 |
| 20260509201837 | 20 | 246 | 8.0 | 11.3 | 0.00 | 0.33 | 0.33 | 66 | 1010.5 |
| 20260509201333 | 20 | 247 | 6.4 | 12.9 | 0.00 | 0.33 | 0.33 | 62 | 1010.6 |
| 20260509200830 | 20 | 282 | 4.8 | 11.3 | 0.00 | 0.33 | 0.33 | 65 | 1010.7 |
| 20260509200325 | 20 | 244 | 3.2 | 6.4 | 0.00 | 0.33 | 0.33 | 66 | 1010.8 |
| 20260509195822 | 19 | 209 | 8.0 | 9.7 | 0.00 | 0.33 | 0.33 | 67 | 1011.0 |
| 20260509195322 | 18 | 286 | 6.4 | 6.4 | 0.00 | 0.33 | 0.33 | 64 | 1011.1 |
| 20260509194822 | 18 | 240 | 4.8 | 9.7 | 0.00 | 0.33 | 0.33 | 65 | 1011.2 |
| 20260509194318 | 18 | 245 | 4.8 | 9.7 | 0.00 | 0.33 | 0.33 | 68 | 1011.2 |
| 20260509193815 | 19 | 276 | 6.4 | 9.7 | 0.00 | 0.33 | 0.33 | 63 | 1011.2 |
| 20260509193315 | 19 | 220 | 6.4 | 9.7 | 0.00 | 0.33 | 0.33 | 63 | 1011.2 |
| 20260509192811 | 19 | 231 | 1.6 | 12.9 | 0.00 | 0.33 | 0.33 | 65 | 1011.3 |
| 20260509192307 | 19 | 276 | 3.2 | 9.7 | 0.00 | 0.33 | 0.33 | 67 | 1011.3 |
| 20260509191802 | 18 | 271 | 4.8 | 12.9 | 0.00 | 0.33 | 0.33 | 69 | 1011.3 |
| 20260509191259 | 20 | 229 | 4.8 | 6.4 | 0.00 | 0.33 | 0.33 | 67 | 1011.3 |